sensor_id;sensor_type;location;lat;lon;timestamp;P1;durP1;ratioP1;P2;durP2;ratioP2
17141;SDS011;32805;53.556;9.944;2023-05-31T00:01:24;5.85;;;2.92;;
17141;SDS011;32805;53.556;9.944;2023-05-31T00:03:52;3.38;;;2.25;;
17141;SDS011;32805;53.556;9.944;2023-05-31T00:06:20;5.07;;;2.83;;
17141;SDS011;32805;53.556;9.944;2023-05-31T00:08:48;5.63;;;3.22;;
17141;SDS011;32805;53.556;9.944;2023-05-31T00:11:15;5.40;;;2.97;;
17141;SDS011;32805;53.556;9.944;2023-05-31T00:13:44;6.05;;;2.72;;
17141;SDS011;32805;53.556;9.944;2023-05-31T00:16:12;6.05;;;3.95;;
17141;SDS011;32805;53.556;9.944;2023-05-31T00:19:00;4.78;;;3.10;;
17141;SDS011;32805;53.556;9.944;2023-05-31T00:21:28;8.60;;;3.28;;
17141;SDS011;32805;53.556;9.944;2023-05-31T00:23:56;6.50;;;2.65;;
17141;SDS011;32805;53.556;9.944;2023-05-31T00:26:24;7.03;;;3.30;;
17141;SDS011;32805;53.556;9.944;2023-05-31T00:28:53;7.90;;;3.38;;
17141;SDS011;32805;53.556;9.944;2023-05-31T00:31:20;5.72;;;3.38;;
17141;SDS011;32805;53.556;9.944;2023-05-31T00:33:48;7.50;;;3.75;;
17141;SDS011;32805;53.556;9.944;2023-05-31T00:36:16;10.50;;;3.60;;
17141;SDS011;32805;53.556;9.944;2023-05-31T00:38:44;8.40;;;3.50;;
17141;SDS011;32805;53.556;9.944;2023-05-31T00:41:12;4.82;;;3.40;;
17141;SDS011;32805;53.556;9.944;2023-05-31T00:43:39;8.02;;;3.58;;
17141;SDS011;32805;53.556;9.944;2023-05-31T00:46:09;5.38;;;3.00;;
17141;SDS011;32805;53.556;9.944;2023-05-31T00:48:42;5.03;;;3.40;;
17141;SDS011;32805;53.556;9.944;2023-05-31T00:51:10;6.95;;;3.40;;
17141;SDS011;32805;53.556;9.944;2023-05-31T00:53:38;7.32;;;3.88;;
17141;SDS011;32805;53.556;9.944;2023-05-31T00:56:07;6.10;;;3.80;;
17141;SDS011;32805;53.556;9.944;2023-05-31T00:58:35;6.45;;;3.20;;
17141;SDS011;32805;53.556;9.944;2023-05-31T01:01:04;4.97;;;3.28;;
17141;SDS011;32805;53.556;9.944;2023-05-31T01:03:33;6.55;;;3.75;;
17141;SDS011;32805;53.556;9.944;2023-05-31T01:06:01;5.72;;;3.10;;
17141;SDS011;32805;53.556;9.944;2023-05-31T01:08:29;5.13;;;3.28;;
17141;SDS011;32805;53.556;9.944;2023-05-31T01:10:58;7.03;;;3.85;;
17141;SDS011;32805;53.556;9.944;2023-05-31T01:13:31;6.05;;;3.50;;
17141;SDS011;32805;53.556;9.944;2023-05-31T01:16:06;6.57;;;3.78;;
17141;SDS011;32805;53.556;9.944;2023-05-31T01:18:40;7.90;;;3.85;;
17141;SDS011;32805;53.556;9.944;2023-05-31T01:21:13;5.72;;;3.97;;
17141;SDS011;32805;53.556;9.944;2023-05-31T01:23:49;5.85;;;3.60;;
17141;SDS011;32805;53.556;9.944;2023-05-31T01:26:36;6.20;;;4.13;;
17141;SDS011;32805;53.556;9.944;2023-05-31T01:29:05;7.70;;;4.50;;
17141;SDS011;32805;53.556;9.944;2023-05-31T01:31:36;7.00;;;3.67;;
17141;SDS011;32805;53.556;9.944;2023-05-31T01:34:04;6.32;;;4.07;;
17141;SDS011;32805;53.556;9.944;2023-05-31T01:36:32;9.10;;;4.15;;
17141;SDS011;32805;53.556;9.944;2023-05-31T01:39:02;7.28;;;4.22;;
17141;SDS011;32805;53.556;9.944;2023-05-31T01:41:31;9.02;;;4.05;;
17141;SDS011;32805;53.556;9.944;2023-05-31T01:44:04;7.57;;;4.13;;
17141;SDS011;32805;53.556;9.944;2023-05-31T01:46:33;5.35;;;3.85;;
17141;SDS011;32805;53.556;9.944;2023-05-31T01:49:01;7.47;;;4.45;;
17141;SDS011;32805;53.556;9.944;2023-05-31T01:51:29;5.15;;;3.97;;
17141;SDS011;32805;53.556;9.944;2023-05-31T01:53:59;7.32;;;3.55;;
17141;SDS011;32805;53.556;9.944;2023-05-31T01:56:27;6.88;;;4.43;;
17141;SDS011;32805;53.556;9.944;2023-05-31T01:58:58;7.63;;;4.18;;
17141;SDS011;32805;53.556;9.944;2023-05-31T02:01:27;6.88;;;3.80;;
17141;SDS011;32805;53.556;9.944;2023-05-31T02:03:56;7.18;;;4.35;;
17141;SDS011;32805;53.556;9.944;2023-05-31T02:06:24;7.82;;;4.60;;
17141;SDS011;32805;53.556;9.944;2023-05-31T02:08:54;9.65;;;4.40;;
17141;SDS011;32805;53.556;9.944;2023-05-31T02:11:25;8.63;;;4.35;;
17141;SDS011;32805;53.556;9.944;2023-05-31T02:13:54;8.55;;;5.03;;
17141;SDS011;32805;53.556;9.944;2023-05-31T02:16:23;7.93;;;4.72;;
17141;SDS011;32805;53.556;9.944;2023-05-31T02:18:52;8.05;;;4.57;;
17141;SDS011;32805;53.556;9.944;2023-05-31T02:21:22;7.63;;;4.93;;
17141;SDS011;32805;53.556;9.944;2023-05-31T02:23:50;9.05;;;4.57;;
17141;SDS011;32805;53.556;9.944;2023-05-31T02:26:18;8.15;;;4.60;;
17141;SDS011;32805;53.556;9.944;2023-05-31T02:28:49;6.90;;;4.43;;
17141;SDS011;32805;53.556;9.944;2023-05-31T02:31:17;11.60;;;4.93;;
17141;SDS011;32805;53.556;9.944;2023-05-31T02:33:45;7.50;;;4.55;;
17141;SDS011;32805;53.556;9.944;2023-05-31T02:36:15;8.75;;;5.18;;
17141;SDS011;32805;53.556;9.944;2023-05-31T02:38:43;7.53;;;4.82;;
17141;SDS011;32805;53.556;9.944;2023-05-31T02:41:11;9.75;;;4.63;;
17141;SDS011;32805;53.556;9.944;2023-05-31T02:43:40;7.18;;;4.68;;
17141;SDS011;32805;53.556;9.944;2023-05-31T02:46:08;7.03;;;4.72;;
17141;SDS011;32805;53.556;9.944;2023-05-31T02:48:36;7.57;;;5.20;;
17141;SDS011;32805;53.556;9.944;2023-05-31T02:51:04;9.13;;;4.65;;
17141;SDS011;32805;53.556;9.944;2023-05-31T02:54:02;6.43;;;4.55;;
17141;SDS011;32805;53.556;9.944;2023-05-31T02:56:32;10.48;;;5.20;;
17141;SDS011;32805;53.556;9.944;2023-05-31T02:59:11;9.35;;;5.15;;
17141;SDS011;32805;53.556;9.944;2023-05-31T03:01:49;8.75;;;5.00;;
17141;SDS011;32805;53.556;9.944;2023-05-31T03:04:35;7.45;;;5.03;;
17141;SDS011;32805;53.556;9.944;2023-05-31T03:07:04;9.52;;;4.80;;
17141;SDS011;32805;53.556;9.944;2023-05-31T03:09:33;6.60;;;4.38;;
17141;SDS011;32805;53.556;9.944;2023-05-31T03:12:01;8.52;;;5.00;;
17141;SDS011;32805;53.556;9.944;2023-05-31T03:14:31;6.40;;;4.60;;
17141;SDS011;32805;53.556;9.944;2023-05-31T03:16:59;9.40;;;5.13;;
17141;SDS011;32805;53.556;9.944;2023-05-31T03:19:27;8.70;;;5.20;;
17141;SDS011;32805;53.556;9.944;2023-05-31T03:21:55;9.52;;;5.10;;
17141;SDS011;32805;53.556;9.944;2023-05-31T03:24:28;7.50;;;5.05;;
17141;SDS011;32805;53.556;9.944;2023-05-31T03:26:58;8.75;;;5.88;;
17141;SDS011;32805;53.556;9.944;2023-05-31T03:29:27;7.72;;;5.43;;
17141;SDS011;32805;53.556;9.944;2023-05-31T03:31:58;8.77;;;5.18;;
17141;SDS011;32805;53.556;9.944;2023-05-31T03:34:27;8.35;;;4.90;;
17141;SDS011;32805;53.556;9.944;2023-05-31T03:36:55;7.43;;;4.82;;
17141;SDS011;32805;53.556;9.944;2023-05-31T03:39:37;9.68;;;5.40;;
17141;SDS011;32805;53.556;9.944;2023-05-31T03:42:09;10.07;;;5.65;;
17141;SDS011;32805;53.556;9.944;2023-05-31T03:44:36;10.30;;;5.55;;
17141;SDS011;32805;53.556;9.944;2023-05-31T03:47:06;7.65;;;5.20;;
17141;SDS011;32805;53.556;9.944;2023-05-31T03:49:34;8.20;;;5.47;;
17141;SDS011;32805;53.556;9.944;2023-05-31T03:52:03;10.18;;;5.47;;
17141;SDS011;32805;53.556;9.944;2023-05-31T03:54:31;8.90;;;5.10;;
17141;SDS011;32805;53.556;9.944;2023-05-31T03:56:59;9.75;;;5.90;;
17141;SDS011;32805;53.556;9.944;2023-05-31T03:59:28;10.00;;;6.10;;
17141;SDS011;32805;53.556;9.944;2023-05-31T04:01:56;13.35;;;5.85;;
17141;SDS011;32805;53.556;9.944;2023-05-31T04:04:25;11.93;;;6.78;;
17141;SDS011;32805;53.556;9.944;2023-05-31T04:06:53;8.45;;;5.53;;
17141;SDS011;32805;53.556;9.944;2023-05-31T04:09:21;10.75;;;5.32;;
17141;SDS011;32805;53.556;9.944;2023-05-31T04:11:54;8.20;;;5.57;;
17141;SDS011;32805;53.556;9.944;2023-05-31T04:14:22;12.55;;;5.60;;
17141;SDS011;32805;53.556;9.944;2023-05-31T04:16:51;11.48;;;5.50;;
17141;SDS011;32805;53.556;9.944;2023-05-31T04:19:19;10.40;;;5.78;;
17141;SDS011;32805;53.556;9.944;2023-05-31T04:21:47;12.63;;;6.18;;
17141;SDS011;32805;53.556;9.944;2023-05-31T04:24:17;16.40;;;7.85;;
17141;SDS011;32805;53.556;9.944;2023-05-31T04:26:45;9.70;;;6.28;;
17141;SDS011;32805;53.556;9.944;2023-05-31T04:29:13;12.90;;;5.80;;
17141;SDS011;32805;53.556;9.944;2023-05-31T04:31:42;9.68;;;5.82;;
17141;SDS011;32805;53.556;9.944;2023-05-31T04:34:21;12.38;;;5.68;;
17141;SDS011;32805;53.556;9.944;2023-05-31T04:36:50;13.15;;;5.75;;
17141;SDS011;32805;53.556;9.944;2023-05-31T04:39:21;12.75;;;7.35;;
17141;SDS011;32805;53.556;9.944;2023-05-31T04:41:53;10.18;;;6.40;;
17141;SDS011;32805;53.556;9.944;2023-05-31T04:44:21;12.32;;;7.05;;
17141;SDS011;32805;53.556;9.944;2023-05-31T04:46:50;8.77;;;5.35;;
17141;SDS011;32805;53.556;9.944;2023-05-31T04:49:18;8.05;;;4.95;;
17141;SDS011;32805;53.556;9.944;2023-05-31T04:51:48;47.10;;;15.93;;
17141;SDS011;32805;53.556;9.944;2023-05-31T04:54:17;14.52;;;6.68;;
17141;SDS011;32805;53.556;9.944;2023-05-31T04:56:44;11.45;;;7.00;;
17141;SDS011;32805;53.556;9.944;2023-05-31T04:59:12;13.75;;;6.45;;
17141;SDS011;32805;53.556;9.944;2023-05-31T05:01:40;13.60;;;6.30;;
17141;SDS011;32805;53.556;9.944;2023-05-31T05:04:13;8.57;;;5.85;;
17141;SDS011;32805;53.556;9.944;2023-05-31T05:06:42;13.07;;;6.15;;
17141;SDS011;32805;53.556;9.944;2023-05-31T05:09:10;10.13;;;5.78;;
17141;SDS011;32805;53.556;9.944;2023-05-31T05:11:38;11.38;;;5.97;;
17141;SDS011;32805;53.556;9.944;2023-05-31T05:14:06;8.60;;;5.45;;
17141;SDS011;32805;53.556;9.944;2023-05-31T05:16:34;12.00;;;5.72;;
17141;SDS011;32805;53.556;9.944;2023-05-31T05:19:03;8.63;;;5.55;;
17141;SDS011;32805;53.556;9.944;2023-05-31T05:21:32;8.77;;;5.25;;
17141;SDS011;32805;53.556;9.944;2023-05-31T05:24:02;9.75;;;5.90;;
17141;SDS011;32805;53.556;9.944;2023-05-31T05:26:29;9.77;;;5.50;;
17141;SDS011;32805;53.556;9.944;2023-05-31T05:28:57;8.55;;;4.60;;
17141;SDS011;32805;53.556;9.944;2023-05-31T05:31:25;8.00;;;5.10;;
17141;SDS011;32805;53.556;9.944;2023-05-31T05:33:55;9.30;;;5.60;;
17141;SDS011;32805;53.556;9.944;2023-05-31T05:36:23;11.15;;;5.03;;
17141;SDS011;32805;53.556;9.944;2023-05-31T05:38:54;9.35;;;5.03;;
17141;SDS011;32805;53.556;9.944;2023-05-31T05:41:27;9.35;;;5.55;;
17141;SDS011;32805;53.556;9.944;2023-05-31T05:43:55;8.32;;;5.00;;
17141;SDS011;32805;53.556;9.944;2023-05-31T05:46:23;8.05;;;5.13;;
17141;SDS011;32805;53.556;9.944;2023-05-31T05:48:50;9.55;;;4.88;;
17141;SDS011;32805;53.556;9.944;2023-05-31T05:51:21;11.15;;;5.30;;
17141;SDS011;32805;53.556;9.944;2023-05-31T05:53:49;11.63;;;4.88;;
17141;SDS011;32805;53.556;9.944;2023-05-31T05:56:17;8.52;;;5.00;;
17141;SDS011;32805;53.556;9.944;2023-05-31T05:58:53;7.15;;;4.72;;
17141;SDS011;32805;53.556;9.944;2023-05-31T06:01:40;11.23;;;6.18;;
17141;SDS011;32805;53.556;9.944;2023-05-31T06:04:11;7.53;;;5.55;;
17141;SDS011;32805;53.556;9.944;2023-05-31T06:06:39;12.60;;;6.65;;
17141;SDS011;32805;53.556;9.944;2023-05-31T06:09:07;14.00;;;7.38;;
17141;SDS011;32805;53.556;9.944;2023-05-31T06:11:36;10.07;;;5.63;;
17141;SDS011;32805;53.556;9.944;2023-05-31T06:14:06;8.55;;;6.03;;
17141;SDS011;32805;53.556;9.944;2023-05-31T06:16:39;7.80;;;5.03;;
17141;SDS011;32805;53.556;9.944;2023-05-31T06:19:06;10.90;;;5.35;;
17141;SDS011;32805;53.556;9.944;2023-05-31T06:21:34;11.25;;;6.65;;
17141;SDS011;32805;53.556;9.944;2023-05-31T06:24:03;8.25;;;4.85;;
17141;SDS011;32805;53.556;9.944;2023-05-31T06:26:33;7.43;;;4.60;;
17141;SDS011;32805;53.556;9.944;2023-05-31T06:29:02;13.15;;;6.32;;
17141;SDS011;32805;53.556;9.944;2023-05-31T06:32:02;9.90;;;5.15;;
17141;SDS011;32805;53.556;9.944;2023-05-31T06:34:34;11.27;;;5.07;;
17141;SDS011;32805;53.556;9.944;2023-05-31T06:37:02;11.95;;;4.88;;
17141;SDS011;32805;53.556;9.944;2023-05-31T06:39:36;12.55;;;4.50;;
17141;SDS011;32805;53.556;9.944;2023-05-31T06:42:05;10.02;;;5.25;;
17141;SDS011;32805;53.556;9.944;2023-05-31T06:44:51;12.07;;;4.18;;
17141;SDS011;32805;53.556;9.944;2023-05-31T06:47:43;9.10;;;4.13;;
17141;SDS011;32805;53.556;9.944;2023-05-31T06:50:14;7.50;;;4.50;;
17141;SDS011;32805;53.556;9.944;2023-05-31T06:52:44;12.73;;;7.28;;
17141;SDS011;32805;53.556;9.944;2023-05-31T06:55:32;10.02;;;5.80;;
17141;SDS011;32805;53.556;9.944;2023-05-31T06:58:00;14.93;;;8.38;;
17141;SDS011;32805;53.556;9.944;2023-05-31T07:00:31;10.02;;;5.20;;
17141;SDS011;32805;53.556;9.944;2023-05-31T07:03:01;10.55;;;5.15;;
17141;SDS011;32805;53.556;9.944;2023-05-31T07:05:29;8.95;;;4.65;;
17141;SDS011;32805;53.556;9.944;2023-05-31T07:07:58;9.57;;;4.13;;
17141;SDS011;32805;53.556;9.944;2023-05-31T07:10:26;7.35;;;4.10;;
17141;SDS011;32805;53.556;9.944;2023-05-31T07:12:54;9.52;;;4.95;;
17141;SDS011;32805;53.556;9.944;2023-05-31T07:15:22;9.80;;;4.47;;
17141;SDS011;32805;53.556;9.944;2023-05-31T07:17:50;7.55;;;3.70;;
17141;SDS011;32805;53.556;9.944;2023-05-31T07:20:19;13.00;;;4.13;;
17141;SDS011;32805;53.556;9.944;2023-05-31T07:22:47;7.22;;;3.10;;
17141;SDS011;32805;53.556;9.944;2023-05-31T07:25:15;8.75;;;3.92;;
17141;SDS011;32805;53.556;9.944;2023-05-31T07:27:42;9.95;;;6.10;;
17141;SDS011;32805;53.556;9.944;2023-05-31T07:30:10;9.43;;;3.58;;
17141;SDS011;32805;53.556;9.944;2023-05-31T07:32:38;7.63;;;3.25;;
17141;SDS011;32805;53.556;9.944;2023-05-31T07:35:06;10.65;;;5.25;;
17141;SDS011;32805;53.556;9.944;2023-05-31T07:37:35;5.90;;;3.20;;
17141;SDS011;32805;53.556;9.944;2023-05-31T07:40:06;5.30;;;3.15;;
17141;SDS011;32805;53.556;9.944;2023-05-31T07:42:34;7.68;;;3.38;;
17141;SDS011;32805;53.556;9.944;2023-05-31T07:45:02;14.35;;;5.38;;
17141;SDS011;32805;53.556;9.944;2023-05-31T07:47:31;9.25;;;3.90;;
17141;SDS011;32805;53.556;9.944;2023-05-31T07:49:59;6.35;;;2.80;;
17141;SDS011;32805;53.556;9.944;2023-05-31T07:52:26;5.80;;;2.65;;
17141;SDS011;32805;53.556;9.944;2023-05-31T07:54:55;4.57;;;2.40;;
17141;SDS011;32805;53.556;9.944;2023-05-31T07:57:23;6.68;;;3.35;;
17141;SDS011;32805;53.556;9.944;2023-05-31T07:59:51;3.55;;;2.55;;
17141;SDS011;32805;53.556;9.944;2023-05-31T08:02:19;8.40;;;2.13;;
17141;SDS011;32805;53.556;9.944;2023-05-31T08:04:47;3.67;;;2.10;;
17141;SDS011;32805;53.556;9.944;2023-05-31T08:07:15;5.07;;;2.33;;
17141;SDS011;32805;53.556;9.944;2023-05-31T08:09:43;4.70;;;2.60;;
17141;SDS011;32805;53.556;9.944;2023-05-31T08:12:12;6.82;;;3.08;;
17141;SDS011;32805;53.556;9.944;2023-05-31T08:14:40;4.05;;;1.70;;
17141;SDS011;32805;53.556;9.944;2023-05-31T08:17:07;5.28;;;1.80;;
17141;SDS011;32805;53.556;9.944;2023-05-31T08:19:35;5.55;;;1.75;;
17141;SDS011;32805;53.556;9.944;2023-05-31T08:22:03;3.22;;;1.73;;
17141;SDS011;32805;53.556;9.944;2023-05-31T08:24:31;3.28;;;1.95;;
17141;SDS011;32805;53.556;9.944;2023-05-31T08:26:59;4.63;;;1.63;;
17141;SDS011;32805;53.556;9.944;2023-05-31T08:29:29;1.92;;;1.25;;
17141;SDS011;32805;53.556;9.944;2023-05-31T08:31:57;3.22;;;1.65;;
17141;SDS011;32805;53.556;9.944;2023-05-31T08:34:24;3.78;;;1.60;;
17141;SDS011;32805;53.556;9.944;2023-05-31T08:36:53;4.60;;;1.60;;
17141;SDS011;32805;53.556;9.944;2023-05-31T08:39:21;4.68;;;1.80;;
17141;SDS011;32805;53.556;9.944;2023-05-31T08:41:50;6.03;;;3.15;;
17141;SDS011;32805;53.556;9.944;2023-05-31T08:44:25;3.15;;;1.75;;
17141;SDS011;32805;53.556;9.944;2023-05-31T08:46:55;6.10;;;1.48;;
17141;SDS011;32805;53.556;9.944;2023-05-31T08:49:24;4.97;;;1.88;;
17141;SDS011;32805;53.556;9.944;2023-05-31T08:51:54;4.75;;;1.88;;
17141;SDS011;32805;53.556;9.944;2023-05-31T08:54:25;5.07;;;2.28;;
17141;SDS011;32805;53.556;9.944;2023-05-31T08:56:54;8.55;;;4.40;;
17141;SDS011;32805;53.556;9.944;2023-05-31T08:59:22;3.55;;;1.95;;
17141;SDS011;32805;53.556;9.944;2023-05-31T09:01:50;7.00;;;2.13;;
17141;SDS011;32805;53.556;9.944;2023-05-31T09:04:20;4.53;;;2.03;;
17141;SDS011;32805;53.556;9.944;2023-05-31T09:06:48;8.07;;;2.38;;
17141;SDS011;32805;53.556;9.944;2023-05-31T09:09:16;6.18;;;2.10;;
17141;SDS011;32805;53.556;9.944;2023-05-31T09:11:45;7.05;;;2.00;;
17141;SDS011;32805;53.556;9.944;2023-05-31T09:14:13;3.05;;;1.85;;
17141;SDS011;32805;53.556;9.944;2023-05-31T09:16:41;5.70;;;1.98;;
17141;SDS011;32805;53.556;9.944;2023-05-31T09:19:09;5.78;;;2.20;;
17141;SDS011;32805;53.556;9.944;2023-05-31T09:21:39;3.45;;;1.85;;
17141;SDS011;32805;53.556;9.944;2023-05-31T09:24:07;4.90;;;2.08;;
17141;SDS011;32805;53.556;9.944;2023-05-31T09:26:38;2.45;;;1.90;;
17141;SDS011;32805;53.556;9.944;2023-05-31T09:29:13;6.85;;;1.90;;
17141;SDS011;32805;53.556;9.944;2023-05-31T09:31:43;4.85;;;2.22;;
17141;SDS011;32805;53.556;9.944;2023-05-31T09:34:24;5.18;;;2.08;;
17141;SDS011;32805;53.556;9.944;2023-05-31T09:36:57;5.82;;;2.55;;
17141;SDS011;32805;53.556;9.944;2023-05-31T09:39:26;5.10;;;2.53;;
17141;SDS011;32805;53.556;9.944;2023-05-31T09:41:53;6.38;;;2.30;;
17141;SDS011;32805;53.556;9.944;2023-05-31T09:44:25;3.75;;;2.38;;
17141;SDS011;32805;53.556;9.944;2023-05-31T09:46:54;4.35;;;2.10;;
17141;SDS011;32805;53.556;9.944;2023-05-31T09:49:22;3.80;;;1.70;;
17141;SDS011;32805;53.556;9.944;2023-05-31T09:51:51;4.45;;;1.98;;
17141;SDS011;32805;53.556;9.944;2023-05-31T09:54:20;3.35;;;1.92;;
17141;SDS011;32805;53.556;9.944;2023-05-31T09:56:54;3.60;;;1.65;;
17141;SDS011;32805;53.556;9.944;2023-05-31T09:59:25;4.30;;;1.67;;
17141;SDS011;32805;53.556;9.944;2023-05-31T10:01:53;5.97;;;2.22;;
17141;SDS011;32805;53.556;9.944;2023-05-31T10:04:21;3.80;;;1.70;;
17141;SDS011;32805;53.556;9.944;2023-05-31T10:06:49;2.65;;;1.33;;
17141;SDS011;32805;53.556;9.944;2023-05-31T10:09:18;4.85;;;1.52;;
17141;SDS011;32805;53.556;9.944;2023-05-31T10:11:49;4.60;;;2.05;;
17141;SDS011;32805;53.556;9.944;2023-05-31T10:14:18;4.65;;;1.90;;
17141;SDS011;32805;53.556;9.944;2023-05-31T10:16:53;6.80;;;2.00;;
17141;SDS011;32805;53.556;9.944;2023-05-31T10:19:22;4.03;;;1.60;;
17141;SDS011;32805;53.556;9.944;2023-05-31T10:21:51;4.80;;;2.15;;
17141;SDS011;32805;53.556;9.944;2023-05-31T10:24:23;6.40;;;2.05;;
17141;SDS011;32805;53.556;9.944;2023-05-31T10:26:56;3.72;;;1.63;;
17141;SDS011;32805;53.556;9.944;2023-05-31T10:29:28;3.00;;;1.48;;
17141;SDS011;32805;53.556;9.944;2023-05-31T10:32:01;6.35;;;1.88;;
17141;SDS011;32805;53.556;9.944;2023-05-31T10:34:36;5.85;;;1.90;;
17141;SDS011;32805;53.556;9.944;2023-05-31T10:37:04;4.85;;;1.75;;
17141;SDS011;32805;53.556;9.944;2023-05-31T10:39:34;2.50;;;1.50;;
17141;SDS011;32805;53.556;9.944;2023-05-31T10:42:14;3.90;;;1.83;;
17141;SDS011;32805;53.556;9.944;2023-05-31T10:44:51;4.93;;;1.90;;
17141;SDS011;32805;53.556;9.944;2023-05-31T10:47:26;2.95;;;1.40;;
17141;SDS011;32805;53.556;9.944;2023-05-31T10:50:00;3.83;;;1.83;;
17141;SDS011;32805;53.556;9.944;2023-05-31T10:52:29;3.35;;;2.00;;
17141;SDS011;32805;53.556;9.944;2023-05-31T10:57:43;9.18;;;2.30;;
17141;SDS011;32805;53.556;9.944;2023-05-31T11:00:11;4.82;;;2.05;;
17141;SDS011;32805;53.556;9.944;2023-05-31T11:02:45;3.90;;;1.73;;
17141;SDS011;32805;53.556;9.944;2023-05-31T11:05:18;3.97;;;1.73;;
17141;SDS011;32805;53.556;9.944;2023-05-31T11:07:46;2.33;;;1.70;;
17141;SDS011;32805;53.556;9.944;2023-05-31T11:10:23;2.40;;;1.50;;
17141;SDS011;32805;53.556;9.944;2023-05-31T11:12:56;5.85;;;2.03;;
17141;SDS011;32805;53.556;9.944;2023-05-31T11:15:37;3.50;;;1.98;;
17141;SDS011;32805;53.556;9.944;2023-05-31T11:18:06;5.00;;;2.17;;
17141;SDS011;32805;53.556;9.944;2023-05-31T11:20:36;6.35;;;2.20;;
17141;SDS011;32805;53.556;9.944;2023-05-31T11:23:23;5.43;;;2.75;;
17141;SDS011;32805;53.556;9.944;2023-05-31T11:26:06;3.42;;;1.55;;
17141;SDS011;32805;53.556;9.944;2023-05-31T11:34:29;5.57;;;2.00;;
17141;SDS011;32805;53.556;9.944;2023-05-31T11:37:00;3.50;;;1.55;;
17141;SDS011;32805;53.556;9.944;2023-05-31T11:39:30;3.10;;;1.58;;
17141;SDS011;32805;53.556;9.944;2023-05-31T11:41:58;4.07;;;1.80;;
17141;SDS011;32805;53.556;9.944;2023-05-31T11:44:28;3.75;;;1.80;;
17141;SDS011;32805;53.556;9.944;2023-05-31T11:47:00;4.95;;;1.48;;
17141;SDS011;32805;53.556;9.944;2023-05-31T11:49:31;3.15;;;1.73;;
17141;SDS011;32805;53.556;9.944;2023-05-31T11:51:59;4.55;;;1.58;;
17141;SDS011;32805;53.556;9.944;2023-05-31T11:54:29;5.18;;;1.52;;
17141;SDS011;32805;53.556;9.944;2023-05-31T11:56:59;5.35;;;1.50;;
17141;SDS011;32805;53.556;9.944;2023-05-31T11:59:31;5.80;;;1.90;;
17141;SDS011;32805;53.556;9.944;2023-05-31T12:01:59;3.78;;;1.40;;
17141;SDS011;32805;53.556;9.944;2023-05-31T12:04:32;4.25;;;1.95;;
17141;SDS011;32805;53.556;9.944;2023-05-31T12:07:00;3.70;;;1.50;;
17141;SDS011;32805;53.556;9.944;2023-05-31T12:09:28;3.90;;;1.60;;
17141;SDS011;32805;53.556;9.944;2023-05-31T12:11:57;5.05;;;1.73;;
17141;SDS011;32805;53.556;9.944;2023-05-31T12:14:24;4.70;;;2.00;;
17141;SDS011;32805;53.556;9.944;2023-05-31T12:16:54;5.47;;;2.03;;
17141;SDS011;32805;53.556;9.944;2023-05-31T12:19:22;4.03;;;1.58;;
17141;SDS011;32805;53.556;9.944;2023-05-31T12:21:50;4.35;;;1.83;;
17141;SDS011;32805;53.556;9.944;2023-05-31T12:24:18;7.05;;;1.77;;
17141;SDS011;32805;53.556;9.944;2023-05-31T12:26:46;3.67;;;1.75;;
17141;SDS011;32805;53.556;9.944;2023-05-31T12:29:15;5.43;;;2.00;;
17141;SDS011;32805;53.556;9.944;2023-05-31T12:31:44;4.60;;;1.98;;
17141;SDS011;32805;53.556;9.944;2023-05-31T12:34:16;5.18;;;2.20;;
17141;SDS011;32805;53.556;9.944;2023-05-31T12:36:45;3.05;;;1.90;;
17141;SDS011;32805;53.556;9.944;2023-05-31T12:39:14;3.88;;;2.10;;
17141;SDS011;32805;53.556;9.944;2023-05-31T12:41:47;5.50;;;2.05;;
17141;SDS011;32805;53.556;9.944;2023-05-31T12:44:17;7.65;;;2.63;;
17141;SDS011;32805;53.556;9.944;2023-05-31T12:46:46;7.10;;;2.20;;
17141;SDS011;32805;53.556;9.944;2023-05-31T12:49:20;3.95;;;1.92;;
17141;SDS011;32805;53.556;9.944;2023-05-31T12:51:48;4.50;;;2.08;;
17141;SDS011;32805;53.556;9.944;2023-05-31T12:54:24;4.78;;;2.03;;
17141;SDS011;32805;53.556;9.944;2023-05-31T12:56:53;5.38;;;1.83;;
17141;SDS011;32805;53.556;9.944;2023-05-31T12:59:21;4.00;;;1.65;;
17141;SDS011;32805;53.556;9.944;2023-05-31T13:01:49;2.47;;;1.30;;
17141;SDS011;32805;53.556;9.944;2023-05-31T13:04:17;3.25;;;1.50;;
17141;SDS011;32805;53.556;9.944;2023-05-31T13:06:46;4.53;;;2.17;;
17141;SDS011;32805;53.556;9.944;2023-05-31T13:09:14;3.63;;;1.80;;
17141;SDS011;32805;53.556;9.944;2023-05-31T13:11:42;3.90;;;1.40;;
17141;SDS011;32805;53.556;9.944;2023-05-31T13:14:11;4.47;;;1.50;;
17141;SDS011;32805;53.556;9.944;2023-05-31T13:16:38;2.00;;;1.25;;
17141;SDS011;32805;53.556;9.944;2023-05-31T13:19:07;2.47;;;1.38;;
17141;SDS011;32805;53.556;9.944;2023-05-31T13:21:35;3.15;;;1.27;;
17141;SDS011;32805;53.556;9.944;2023-05-31T13:24:05;5.75;;;1.67;;
17141;SDS011;32805;53.556;9.944;2023-05-31T13:26:34;3.80;;;1.30;;
17141;SDS011;32805;53.556;9.944;2023-05-31T13:29:02;3.33;;;1.48;;
17141;SDS011;32805;53.556;9.944;2023-05-31T13:31:31;4.68;;;1.27;;
17141;SDS011;32805;53.556;9.944;2023-05-31T13:33:59;3.70;;;1.15;;
17141;SDS011;32805;53.556;9.944;2023-05-31T13:36:26;4.05;;;1.13;;
17141;SDS011;32805;53.556;9.944;2023-05-31T13:38:54;4.03;;;1.40;;
17141;SDS011;32805;53.556;9.944;2023-05-31T13:41:23;2.35;;;1.20;;
17141;SDS011;32805;53.556;9.944;2023-05-31T13:43:51;3.70;;;1.10;;
17141;SDS011;32805;53.556;9.944;2023-05-31T13:46:18;3.35;;;1.00;;
17141;SDS011;32805;53.556;9.944;2023-05-31T13:48:46;3.30;;;1.48;;
17141;SDS011;32805;53.556;9.944;2023-05-31T13:51:14;3.10;;;1.20;;
17141;SDS011;32805;53.556;9.944;2023-05-31T13:53:42;2.47;;;1.60;;
17141;SDS011;32805;53.556;9.944;2023-05-31T13:56:10;2.35;;;1.15;;
17141;SDS011;32805;53.556;9.944;2023-05-31T13:58:39;2.30;;;0.82;;
17141;SDS011;32805;53.556;9.944;2023-05-31T14:01:07;2.20;;;1.02;;
17141;SDS011;32805;53.556;9.944;2023-05-31T14:03:35;5.03;;;1.30;;
17141;SDS011;32805;53.556;9.944;2023-05-31T14:06:04;4.10;;;1.38;;
17141;SDS011;32805;53.556;9.944;2023-05-31T14:08:32;3.25;;;1.23;;
17141;SDS011;32805;53.556;9.944;2023-05-31T14:11:02;2.53;;;1.30;;
17141;SDS011;32805;53.556;9.944;2023-05-31T14:13:29;3.85;;;1.33;;
17141;SDS011;32805;53.556;9.944;2023-05-31T14:15:58;4.40;;;1.65;;
17141;SDS011;32805;53.556;9.944;2023-05-31T14:18:27;4.28;;;1.45;;
17141;SDS011;32805;53.556;9.944;2023-05-31T14:20:54;5.05;;;1.48;;
17141;SDS011;32805;53.556;9.944;2023-05-31T14:23:23;4.40;;;1.27;;
17141;SDS011;32805;53.556;9.944;2023-05-31T14:25:50;2.45;;;1.45;;
17141;SDS011;32805;53.556;9.944;2023-05-31T14:28:18;3.88;;;1.77;;
17141;SDS011;32805;53.556;9.944;2023-05-31T14:30:46;3.35;;;1.40;;
17141;SDS011;32805;53.556;9.944;2023-05-31T14:33:15;3.47;;;1.52;;
17141;SDS011;32805;53.556;9.944;2023-05-31T14:35:43;2.88;;;1.30;;
17141;SDS011;32805;53.556;9.944;2023-05-31T14:38:11;4.72;;;1.70;;
17141;SDS011;32805;53.556;9.944;2023-05-31T14:40:59;2.83;;;1.77;;
17141;SDS011;32805;53.556;9.944;2023-05-31T14:43:27;3.65;;;1.73;;
17141;SDS011;32805;53.556;9.944;2023-05-31T14:45:58;3.92;;;2.00;;
17141;SDS011;32805;53.556;9.944;2023-05-31T14:48:35;5.10;;;1.98;;
17141;SDS011;32805;53.556;9.944;2023-05-31T14:51:03;5.13;;;1.83;;
17141;SDS011;32805;53.556;9.944;2023-05-31T14:53:31;4.25;;;1.95;;
17141;SDS011;32805;53.556;9.944;2023-05-31T14:55:59;3.88;;;1.95;;
17141;SDS011;32805;53.556;9.944;2023-05-31T14:58:29;3.15;;;1.83;;
17141;SDS011;32805;53.556;9.944;2023-05-31T15:00:57;3.97;;;1.38;;
17141;SDS011;32805;53.556;9.944;2023-05-31T15:03:25;3.47;;;1.55;;
17141;SDS011;32805;53.556;9.944;2023-05-31T15:05:54;4.47;;;2.25;;
17141;SDS011;32805;53.556;9.944;2023-05-31T15:08:22;3.60;;;1.73;;
17141;SDS011;32805;53.556;9.944;2023-05-31T15:10:50;3.65;;;1.70;;